Time;durP1;ratioP1;P1;durP2;ratioP2;P2;SDS_P1;SDS_P2;PMS_P1;PMS_P2;Temp;Humidity;BMP_temperature;BMP_pressure;BME280_temperature;BME280_humidity;BME280_pressure;Samples;Min_cycle;Max_cycle;Signal;HPM_P1;HPM_P2
2022/07/07 00:02:04;;;;;;;12.15;3.40;;;;;;;;;;4981528;28;20393;-64
2022/07/07 00:04:31;;;;;;;10.77;3.53;;;;;;;;;;4980872;28;20049;-64
2022/07/07 00:06:57;;;;;;;14.27;3.03;;;;;;;;;;4979165;28;20046;-64
2022/07/07 00:09:23;;;;;;;14.45;3.05;;;;;;;;;;4981788;28;20034;-64
2022/07/07 00:11:49;;;;;;;13.23;2.92;;;;;;;;;;4980361;28;20073;-64
2022/07/07 00:14:15;;;;;;;14.50;3.22;;;;;;;;;;4982307;28;20057;-64
2022/07/07 00:16:42;;;;;;;13.95;3.33;;;;;;;;;;4960909;28;20051;-64
2022/07/07 00:19:08;;;;;;;12.57;3.45;;;;;;;;;;4984470;28;20061;-64
2022/07/07 00:21:34;;;;;;;10.20;3.08;;;;;;;;;;4985216;28;20390;-64
2022/07/07 00:24:01;;;;;;;12.88;2.92;;;;;;;;;;4961643;28;20513;-64
2022/07/07 00:26:30;;;;;;;11.98;3.22;;;;;;;;;;4981800;28;20512;-64
2022/07/07 00:28:56;;;;;;;12.88;3.30;;;;;;;;;;4982721;28;20046;-64
2022/07/07 00:31:22;;;;;;;14.85;4.22;;;;;;;;;;4963639;28;20046;-64
2022/07/07 00:33:48;;;;;;;8.27;3.53;;;;;;;;;;4964442;28;20175;-64
2022/07/07 00:36:15;;;;;;;10.43;3.75;;;;;;;;;;4981017;28;20474;-64
2022/07/07 00:38:41;;;;;;;12.18;3.42;;;;;;;;;;4979960;28;21831;-64
2022/07/07 00:41:07;;;;;;;9.02;3.30;;;;;;;;;;4981935;28;20045;-64
2022/07/07 00:43:37;;;;;;;13.77;4.22;;;;;;;;;;4984946;28;20387;-64
2022/07/07 00:46:03;;;;;;;14.05;4.00;;;;;;;;;;4984258;28;20053;-63
2022/07/07 00:48:31;;;;;;;11.38;3.45;;;;;;;;;;4982218;28;20047;-64
2022/07/07 00:50:57;;;;;;;11.60;3.80;;;;;;;;;;4964049;28;20494;-64
2022/07/07 00:53:24;;;;;;;12.82;4.00;;;;;;;;;;4981521;28;20043;-64
2022/07/07 00:55:50;;;;;;;13.05;4.10;;;;;;;;;;4979107;28;20089;-64
2022/07/07 00:58:16;;;;;;;10.90;3.88;;;;;;;;;;4977369;28;20078;-64
2022/07/07 01:00:43;;;;;;;14.27;4.35;;;;;;;;;;4977337;28;20110;-64
2022/07/07 01:03:09;;;;;;;15.60;3.58;;;;;;;;;;4962778;28;20240;-64
2022/07/07 01:05:36;;;;;;;14.52;3.92;;;;;;;;;;4978434;28;20134;-64
2022/07/07 01:08:03;;;;;;;12.05;3.75;;;;;;;;;;4960281;28;20044;-64
2022/07/07 01:10:29;;;;;;;19.30;4.00;;;;;;;;;;4964489;28;20058;-64
2022/07/07 01:12:55;;;;;;;14.15;4.10;;;;;;;;;;4964413;28;20042;-64
2022/07/07 01:15:21;;;;;;;17.15;3.83;;;;;;;;;;4980870;28;20473;-64
2022/07/07 01:17:48;;;;;;;17.92;4.13;;;;;;;;;;4978523;28;20510;-64
2022/07/07 01:20:14;;;;;;;17.33;3.40;;;;;;;;;;4980237;28;20332;-64
2022/07/07 01:22:48;;;;;;;17.08;4.13;;;;;;;;;;4979041;28;20434;-64
2022/07/07 01:25:14;;;;;;;17.23;3.92;;;;;;;;;;4961927;28;20046;-64
2022/07/07 01:27:40;;;;;;;17.83;3.78;;;;;;;;;;4980311;28;20043;-64
2022/07/07 01:30:06;;;;;;;21.75;4.88;;;;;;;;;;4963222;28;20054;-63
2022/07/07 01:32:33;;;;;;;17.52;3.53;;;;;;;;;;4980618;28;20120;-63
2022/07/07 01:34:59;;;;;;;24.20;4.18;;;;;;;;;;4980212;28;20065;-64
2022/07/07 01:37:25;;;;;;;22.35;4.38;;;;;;;;;;4979975;28;20071;-64
2022/07/07 01:39:52;;;;;;;13.13;3.03;;;;;;;;;;4981211;28;20050;-64
2022/07/07 01:42:18;;;;;;;20.95;3.72;;;;;;;;;;4963155;28;20137;-64
2022/07/07 01:44:44;;;;;;;16.90;3.85;;;;;;;;;;4979186;28;20046;-64
2022/07/07 01:47:12;;;;;;;12.13;2.65;;;;;;;;;;4962081;28;20057;-64
2022/07/07 01:49:38;;;;;;;8.50;2.85;;;;;;;;;;4980934;28;20152;-64
2022/07/07 01:52:05;;;;;;;12.93;2.38;;;;;;;;;;4963237;28;20402;-64
2022/07/07 01:54:32;;;;;;;10.68;2.55;;;;;;;;;;4981332;28;20046;-64
2022/07/07 01:56:58;;;;;;;12.77;2.97;;;;;;;;;;4983292;28;20041;-64
2022/07/07 01:59:25;;;;;;;9.77;2.20;;;;;;;;;;4980766;28;20038;-64
2022/07/07 02:01:51;;;;;;;11.70;2.40;;;;;;;;;;4979109;28;20046;-64
2022/07/07 02:04:18;;;;;;;13.82;2.70;;;;;;;;;;4978205;28;20042;-64
2022/07/07 02:06:44;;;;;;;14.13;2.33;;;;;;;;;;4979614;28;20148;-64
2022/07/07 02:09:10;;;;;;;11.55;2.35;;;;;;;;;;4979837;28;20051;-64
2022/07/07 02:11:37;;;;;;;12.65;2.78;;;;;;;;;;4979080;28;20095;-64
2022/07/07 02:14:03;;;;;;;10.93;2.42;;;;;;;;;;4980082;28;20060;-64
2022/07/07 02:16:30;;;;;;;12.20;2.50;;;;;;;;;;4976116;28;20042;-64
2022/07/07 02:18:58;;;;;;;16.15;3.45;;;;;;;;;;4975803;28;20148;-64
2022/07/07 02:21:24;;;;;;;14.48;2.90;;;;;;;;;;4980577;28;20057;-64
2022/07/07 02:23:51;;;;;;;19.15;3.38;;;;;;;;;;4987804;28;20107;-64
2022/07/07 02:26:18;;;;;;;14.23;3.33;;;;;;;;;;4982808;28;20602;-64
2022/07/07 02:28:44;;;;;;;11.48;3.15;;;;;;;;;;4963795;28;20050;-64
2022/07/07 02:31:10;;;;;;;20.15;3.97;;;;;;;;;;4965337;28;20901;-64
2022/07/07 02:33:36;;;;;;;12.70;3.08;;;;;;;;;;4982567;28;20084;-64
2022/07/07 02:36:03;;;;;;;14.32;3.55;;;;;;;;;;4982382;28;20050;-64
2022/07/07 02:38:30;;;;;;;17.42;3.22;;;;;;;;;;4966622;28;20157;-64
2022/07/07 02:40:56;;;;;;;16.60;3.33;;;;;;;;;;4984698;28;20051;-64
2022/07/07 02:43:23;;;;;;;12.50;3.78;;;;;;;;;;4964696;28;20052;-64
2022/07/07 02:45:49;;;;;;;23.73;3.08;;;;;;;;;;4966975;28;20140;-64
2022/07/07 02:48:16;;;;;;;22.65;3.33;;;;;;;;;;4964023;28;20458;-64
2022/07/07 02:50:43;;;;;;;16.77;3.03;;;;;;;;;;4983011;28;20042;-64
2022/07/07 02:53:11;;;;;;;16.73;2.83;;;;;;;;;;4963312;28;20047;-64
2022/07/07 02:55:37;;;;;;;15.63;3.13;;;;;;;;;;4981234;28;20140;-64
2022/07/07 02:58:04;;;;;;;17.08;3.17;;;;;;;;;;4978622;28;20108;-64
2022/07/07 03:00:37;;;;;;;16.25;2.72;;;;;;;;;;4979624;28;20051;-64
2022/07/07 03:03:04;;;;;;;16.80;3.17;;;;;;;;;;4978340;28;21733;-63
2022/07/07 03:05:30;;;;;;;13.55;2.25;;;;;;;;;;4984454;28;20044;-64
2022/07/07 03:07:56;;;;;;;11.30;2.33;;;;;;;;;;4979393;28;20043;-64
2022/07/07 03:10:23;;;;;;;11.85;1.90;;;;;;;;;;4980284;28;20400;-64
2022/07/07 03:12:49;;;;;;;11.73;2.13;;;;;;;;;;4981937;28;20058;-64
2022/07/07 03:15:15;;;;;;;8.55;1.95;;;;;;;;;;4980810;28;20082;-64
2022/07/07 03:17:42;;;;;;;13.35;1.83;;;;;;;;;;4981483;28;20116;-64
2022/07/07 03:20:10;;;;;;;12.52;1.70;;;;;;;;;;4982073;28;20167;-64
2022/07/07 03:22:36;;;;;;;12.10;2.20;;;;;;;;;;4984783;28;20051;-64
2022/07/07 03:25:02;;;;;;;9.15;1.95;;;;;;;;;;4976070;28;20580;-64
2022/07/07 03:27:28;;;;;;;10.15;1.40;;;;;;;;;;4981904;28;20054;-63
2022/07/07 03:29:54;;;;;;;12.27;1.65;;;;;;;;;;4964528;28;20467;-63
2022/07/07 03:32:21;;;;;;;7.05;1.30;;;;;;;;;;4980519;28;20054;-64
2022/07/07 03:34:47;;;;;;;9.60;1.48;;;;;;;;;;4981709;28;20046;-64
2022/07/07 03:37:13;;;;;;;9.32;1.48;;;;;;;;;;4982500;28;20109;-64
2022/07/07 03:39:39;;;;;;;9.68;1.48;;;;;;;;;;4981809;28;20884;-64
2022/07/07 03:42:05;;;;;;;14.60;2.08;;;;;;;;;;4981164;28;20042;-64
2022/07/07 03:44:32;;;;;;;7.40;2.00;;;;;;;;;;4980502;28;20042;-64
2022/07/07 03:46:58;;;;;;;11.95;2.20;;;;;;;;;;4964345;28;20050;-64
2022/07/07 03:49:25;;;;;;;12.63;1.73;;;;;;;;;;4963607;28;20141;-64
2022/07/07 03:51:51;;;;;;;7.68;1.30;;;;;;;;;;4981859;28;20927;-63
2022/07/07 03:54:17;;;;;;;9.45;2.17;;;;;;;;;;4981088;28;20065;-64
2022/07/07 03:56:43;;;;;;;14.48;2.42;;;;;;;;;;4976894;28;20039;-64
2022/07/07 03:59:09;;;;;;;12.38;2.10;;;;;;;;;;4985835;28;20199;-64
2022/07/07 04:01:36;;;;;;;12.38;1.77;;;;;;;;;;4977920;28;20042;-64
2022/07/07 04:04:04;;;;;;;7.88;1.38;;;;;;;;;;4981076;28;20042;-64
2022/07/07 04:06:31;;;;;;;7.93;2.03;;;;;;;;;;4978051;28;20072;-64
2022/07/07 04:08:58;;;;;;;7.30;1.40;;;;;;;;;;4960837;28;20059;-64
2022/07/07 04:11:24;;;;;;;9.02;1.48;;;;;;;;;;4963225;28;20134;-64
2022/07/07 04:13:50;;;;;;;10.27;2.10;;;;;;;;;;4981100;28;20592;-64
2022/07/07 04:16:16;;;;;;;13.52;2.65;;;;;;;;;;4980177;28;20045;-64
2022/07/07 04:18:42;;;;;;;8.43;2.03;;;;;;;;;;4977784;28;20145;-63
2022/07/07 04:21:09;;;;;;;16.60;2.10;;;;;;;;;;4982371;28;20038;-64
2022/07/07 04:23:35;;;;;;;8.05;1.67;;;;;;;;;;4980980;28;20107;-64
2022/07/07 04:26:01;;;;;;;13.18;2.42;;;;;;;;;;4978279;28;20089;-64
2022/07/07 04:28:29;;;;;;;14.65;2.22;;;;;;;;;;4979735;28;20040;-64
2022/07/07 04:30:55;;;;;;;10.25;2.75;;;;;;;;;;4979195;28;20054;-64
2022/07/07 04:33:21;;;;;;;15.55;2.60;;;;;;;;;;4981643;28;20050;-64
2022/07/07 04:35:47;;;;;;;14.23;3.03;;;;;;;;;;4969628;28;20455;-63
2022/07/07 04:38:14;;;;;;;15.15;2.85;;;;;;;;;;4982562;28;20031;-64
2022/07/07 04:40:40;;;;;;;14.20;2.65;;;;;;;;;;4980102;28;20080;-64
2022/07/07 04:43:07;;;;;;;12.20;2.58;;;;;;;;;;4977723;28;20038;-63
2022/07/07 04:45:34;;;;;;;9.80;2.08;;;;;;;;;;4982870;28;20121;-64
2022/07/07 04:48:00;;;;;;;15.55;3.08;;;;;;;;;;4981953;28;20073;-63
2022/07/07 04:50:26;;;;;;;17.38;2.67;;;;;;;;;;4978552;28;20129;-63
2022/07/07 04:52:53;;;;;;;15.80;2.78;;;;;;;;;;4971302;28;20144;-64
2022/07/07 04:55:19;;;;;;;11.85;2.08;;;;;;;;;;4960870;28;20121;-63
2022/07/07 04:57:46;;;;;;;13.10;2.85;;;;;;;;;;4971358;28;20517;-63
2022/07/07 05:00:12;;;;;;;14.38;3.40;;;;;;;;;;4959127;28;20050;-63
2022/07/07 05:02:38;;;;;;;11.85;2.50;;;;;;;;;;4974425;28;20134;-63
2022/07/07 05:05:06;;;;;;;16.92;2.75;;;;;;;;;;4958307;28;20055;-63
2022/07/07 05:07:32;;;;;;;14.27;2.50;;;;;;;;;;4969724;28;20583;-63
2022/07/07 05:09:58;;;;;;;16.95;2.53;;;;;;;;;;4951567;28;20047;-62
2022/07/07 05:12:25;;;;;;;13.02;2.30;;;;;;;;;;4968510;28;20498;-63
2022/07/07 05:14:51;;;;;;;14.25;2.45;;;;;;;;;;4970072;28;20081;-63
2022/07/07 05:17:17;;;;;;;14.77;2.10;;;;;;;;;;4950080;28;20049;-63
2022/07/07 05:19:43;;;;;;;14.23;2.10;;;;;;;;;;4969377;28;20082;-63
2022/07/07 05:22:09;;;;;;;12.05;2.05;;;;;;;;;;4969705;28;20120;-63
2022/07/07 05:24:36;;;;;;;15.50;1.80;;;;;;;;;;4949228;28;20127;-63
2022/07/07 05:27:02;;;;;;;12.60;2.17;;;;;;;;;;4971723;28;20152;-63
2022/07/07 05:29:28;;;;;;;9.38;1.80;;;;;;;;;;4973693;28;20042;-64
2022/07/07 05:31:54;;;;;;;9.38;2.30;;;;;;;;;;4971980;28;20051;-63
2022/07/07 05:34:20;;;;;;;9.90;1.90;;;;;;;;;;4976008;28;20062;-63
2022/07/07 05:36:47;;;;;;;10.52;1.85;;;;;;;;;;4975815;28;20050;-63
2022/07/07 05:39:13;;;;;;;12.20;2.65;;;;;;;;;;4969164;28;20065;-63
2022/07/07 05:41:41;;;;;;;10.52;1.70;;;;;;;;;;4977707;28;20053;-63
2022/07/07 05:44:08;;;;;;;8.75;1.70;;;;;;;;;;4973935;28;20409;-63
2022/07/07 05:46:34;;;;;;;11.10;2.42;;;;;;;;;;4971754;28;20054;-64
2022/07/07 05:49:00;;;;;;;9.95;1.65;;;;;;;;;;4956797;28;20034;-63
2022/07/07 05:51:27;;;;;;;13.88;2.20;;;;;;;;;;4974659;28;20584;-63
2022/07/07 05:53:54;;;;;;;13.07;2.00;;;;;;;;;;4975557;28;20047;-63
2022/07/07 05:56:20;;;;;;;23.15;2.47;;;;;;;;;;4959801;28;20043;-65
2022/07/07 05:58:46;;;;;;;12.35;2.33;;;;;;;;;;4961901;28;20038;-64
2022/07/07 06:01:13;;;;;;;14.05;2.60;;;;;;;;;;4971623;28;20072;-63
2022/07/07 06:03:39;;;;;;;11.40;2.08;;;;;;;;;;4987332;28;20038;-63
2022/07/07 06:06:05;;;;;;;11.35;1.40;;;;;;;;;;4983061;28;20114;-64
2022/07/07 06:08:32;;;;;;;11.27;1.73;;;;;;;;;;4963475;28;20154;-64
2022/07/07 06:10:58;;;;;;;4.60;0.88;;;;;;;;;;4981572;28;20085;-64
2022/07/07 06:13:24;;;;;;;2.20;0.80;;;;;;;;;;4983306;28;20047;-63
2022/07/07 06:15:50;;;;;;;5.78;1.05;;;;;;;;;;4983160;28;20060;-63
2022/07/07 06:18:17;;;;;;;6.28;1.75;;;;;;;;;;4964841;28;20042;-63
2022/07/07 06:20:43;;;;;;;11.07;1.40;;;;;;;;;;4965621;28;20050;-64
2022/07/07 06:23:10;;;;;;;4.88;1.20;;;;;;;;;;4986349;28;20087;-64
2022/07/07 06:25:36;;;;;;;7.63;1.17;;;;;;;;;;4967188;28;20633;-64
2022/07/07 06:28:03;;;;;;;7.10;1.42;;;;;;;;;;4981800;28;20569;-63
2022/07/07 06:30:29;;;;;;;2.50;0.70;;;;;;;;;;4977717;28;20058;-63
2022/07/07 06:32:55;;;;;;;5.72;1.05;;;;;;;;;;4968146;28;20054;-64
2022/07/07 06:35:24;;;;;;;8.60;0.80;;;;;;;;;;4963150;28;20051;-64
2022/07/07 06:37:52;;;;;;;9.30;1.27;;;;;;;;;;4982489;28;20058;-64
2022/07/07 06:40:19;;;;;;;10.25;1.40;;;;;;;;;;4983485;28;20038;-63
2022/07/07 06:42:45;;;;;;;11.68;2.15;;;;;;;;;;4982069;28;20106;-63
2022/07/07 06:45:11;;;;;;;8.65;1.70;;;;;;;;;;4979952;28;20102;-63
2022/07/07 06:47:38;;;;;;;11.95;2.20;;;;;;;;;;4986739;28;20080;-63
2022/07/07 06:50:04;;;;;;;11.40;1.52;;;;;;;;;;4989562;28;20107;-64
2022/07/07 06:52:30;;;;;;;7.70;1.50;;;;;;;;;;4975891;28;20052;-63
2022/07/07 06:54:57;;;;;;;10.73;1.50;;;;;;;;;;4996413;28;20500;-63
2022/07/07 06:57:23;;;;;;;10.00;1.67;;;;;;;;;;4971917;28;20046;-63
2022/07/07 06:59:49;;;;;;;7.10;1.73;;;;;;;;;;4989006;28;20474;-63
2022/07/07 07:02:15;;;;;;;9.48;2.03;;;;;;;;;;4973361;28;20044;-63
2022/07/07 07:04:42;;;;;;;11.50;1.85;;;;;;;;;;4991059;28;20049;-63
2022/07/07 07:07:08;;;;;;;8.50;2.63;;;;;;;;;;4989794;28;20057;-63
2022/07/07 07:09:34;;;;;;;10.45;2.47;;;;;;;;;;4991650;28;20105;-64
2022/07/07 07:12:00;;;;;;;8.00;1.40;;;;;;;;;;4993347;28;20043;-63
2022/07/07 07:14:26;;;;;;;7.90;1.52;;;;;;;;;;4993127;28;20066;-63
2022/07/07 07:16:53;;;;;;;6.93;1.15;;;;;;;;;;4997480;28;20046;-63
2022/07/07 07:19:19;;;;;;;12.38;1.73;;;;;;;;;;4976847;28;20046;-63
2022/07/07 07:21:45;;;;;;;7.88;1.60;;;;;;;;;;4996213;28;20365;-63
2022/07/07 07:24:12;;;;;;;8.27;1.30;;;;;;;;;;4997079;28;20068;-63
2022/07/07 07:26:38;;;;;;;7.82;1.80;;;;;;;;;;4995099;28;20039;-63
2022/07/07 07:29:05;;;;;;;9.50;2.15;;;;;;;;;;4994234;28;20406;-63
2022/07/07 07:31:31;;;;;;;6.78;1.67;;;;;;;;;;4976316;28;20056;-63
2022/07/07 07:33:57;;;;;;;6.35;1.30;;;;;;;;;;4996872;28;20046;-63
2022/07/07 07:36:23;;;;;;;11.27;2.35;;;;;;;;;;4994510;28;20046;-63
2022/07/07 07:38:50;;;;;;;8.40;1.40;;;;;;;;;;4994220;28;20041;-63
2022/07/07 07:41:18;;;;;;;7.70;1.45;;;;;;;;;;4997126;28;20497;-63
2022/07/07 07:43:44;;;;;;;13.05;2.10;;;;;;;;;;4995268;28;20042;-63
2022/07/07 07:46:10;;;;;;;11.23;1.70;;;;;;;;;;4973912;28;20189;-63
2022/07/07 07:48:36;;;;;;;10.10;2.30;;;;;;;;;;4978958;28;20110;-63
2022/07/07 07:51:03;;;;;;;14.98;2.50;;;;;;;;;;4994678;28;20048;-63
2022/07/07 07:53:29;;;;;;;9.23;1.90;;;;;;;;;;4994758;28;20373;-63
2022/07/07 07:55:55;;;;;;;11.27;2.03;;;;;;;;;;5000498;28;20450;-63
2022/07/07 07:58:21;;;;;;;13.45;2.45;;;;;;;;;;4999627;28;20455;-64
2022/07/07 08:00:48;;;;;;;9.15;2.10;;;;;;;;;;4996457;28;20068;-63
2022/07/07 08:03:15;;;;;;;13.30;3.25;;;;;;;;;;4979204;28;20104;-63
2022/07/07 08:05:41;;;;;;;8.68;2.63;;;;;;;;;;4990056;28;20141;-63
2022/07/07 08:08:07;;;;;;;9.57;2.17;;;;;;;;;;4972893;28;20107;-63
2022/07/07 08:10:33;;;;;;;10.85;1.95;;;;;;;;;;4994763;28;20046;-63
2022/07/07 08:12:59;;;;;;;16.60;3.03;;;;;;;;;;4999426;28;20425;-62
2022/07/07 08:15:26;;;;;;;12.40;2.17;;;;;;;;;;4998991;28;20046;-63
2022/07/07 08:17:52;;;;;;;9.23;1.52;;;;;;;;;;4991331;28;20049;-63
2022/07/07 08:20:18;;;;;;;5.57;1.75;;;;;;;;;;5046676;28;20033;-63
2022/07/07 08:22:44;;;;;;;11.05;2.42;;;;;;;;;;5047872;28;20076;-63
2022/07/07 08:25:11;;;;;;;10.45;2.75;;;;;;;;;;5053889;28;20044;-63
2022/07/07 08:27:37;;;;;;;11.93;2.22;;;;;;;;;;5051106;28;20044;-63
2022/07/07 08:30:05;;;;;;;12.43;2.38;;;;;;;;;;5055935;28;20080;-63
2022/07/07 08:32:31;;;;;;;10.23;2.30;;;;;;;;;;5046530;28;20041;-63
2022/07/07 08:34:58;;;;;;;9.48;2.03;;;;;;;;;;5045441;28;20036;-63
2022/07/07 08:37:24;;;;;;;7.65;2.25;;;;;;;;;;5051073;28;20090;-63
2022/07/07 08:39:50;;;;;;;10.88;1.95;;;;;;;;;;5048913;28;20727;-63
2022/07/07 08:42:16;;;;;;;11.35;2.20;;;;;;;;;;5047872;28;20039;-64
2022/07/07 08:44:43;;;;;;;9.55;1.65;;;;;;;;;;5046355;28;20045;-63
2022/07/07 08:47:09;;;;;;;5.80;1.45;;;;;;;;;;5049472;28;20037;-63
2022/07/07 08:49:35;;;;;;;8.77;2.15;;;;;;;;;;5047164;28;20542;-63
2022/07/07 08:52:02;;;;;;;9.52;2.10;;;;;;;;;;5050230;28;20037;-63
2022/07/07 08:54:28;;;;;;;8.65;1.92;;;;;;;;;;5051482;28;20050;-63
2022/07/07 08:56:55;;;;;;;7.60;1.83;;;;;;;;;;5049120;28;20127;-63
2022/07/07 08:59:21;;;;;;;8.70;1.92;;;;;;;;;;5050704;28;20045;-63
2022/07/07 09:01:55;;;;;;;10.15;2.15;;;;;;;;;;5047265;28;20048;-63
2022/07/07 09:04:22;;;;;;;8.45;1.70;;;;;;;;;;5046429;28;20102;-64
2022/07/07 09:06:53;;;;;;;11.63;2.33;;;;;;;;;;5048980;28;20135;-63
2022/07/07 09:09:36;;;;;;;8.85;2.03;;;;;;;;;;5051855;28;20040;-63
2022/07/07 09:12:03;;;;;;;5.57;0.90;;;;;;;;;;5041918;28;20135;-63
2022/07/07 09:14:37;;;;;;;7.20;1.13;;;;;;;;;;5048650;28;20041;-63
2022/07/07 09:17:03;;;;;;;7.50;1.55;;;;;;;;;;5052657;28;20049;-63
2022/07/07 09:19:29;;;;;;;10.55;1.58;;;;;;;;;;4999719;28;20050;-63
2022/07/07 09:21:56;;;;;;;9.23;1.60;;;;;;;;;;4991149;28;20122;-63
2022/07/07 09:24:22;;;;;;;11.52;1.55;;;;;;;;;;4990069;28;21890;-63
2022/07/07 09:26:51;;;;;;;10.75;1.88;;;;;;;;;;4991439;28;20042;-63
2022/07/07 09:29:19;;;;;;;10.63;1.67;;;;;;;;;;4979426;28;20438;-63
2022/07/07 09:31:52;;;;;;;6.90;1.55;;;;;;;;;;4998642;28;20139;-63
2022/07/07 09:34:19;;;;;;;6.22;1.25;;;;;;;;;;4997901;28;20486;-63
2022/07/07 09:39:46;;;;;;;7.53;1.15;;;;;;;;;;4992558;28;20134;-63
2022/07/07 09:42:18;;;;;;;6.57;1.92;;;;;;;;;;4998223;28;20049;-63
2022/07/07 09:44:45;;;;;;;11.15;1.85;;;;;;;;;;4992414;28;20319;-63
2022/07/07 09:47:11;;;;;;;12.45;2.00;;;;;;;;;;4996261;28;20036;-63
2022/07/07 09:49:42;;;;;;;10.02;2.03;;;;;;;;;;5000463;28;20043;-64
2022/07/07 09:52:15;;;;;;;9.43;2.00;;;;;;;;;;4988421;28;20554;-64
2022/07/07 09:54:46;;;;;;;11.18;1.85;;;;;;;;;;4981685;28;20062;-64
2022/07/07 09:57:12;;;;;;;11.43;2.47;;;;;;;;;;4982976;28;20041;-64
2022/07/07 09:59:41;;;;;;;13.68;1.80;;;;;;;;;;4983294;28;20252;-64
2022/07/07 10:02:08;;;;;;;12.90;2.58;;;;;;;;;;4987652;28;20402;-64
2022/07/07 10:04:35;;;;;;;10.93;2.20;;;;;;;;;;4985987;28;20046;-63
2022/07/07 10:07:02;;;;;;;11.13;2.22;;;;;;;;;;4985394;28;20039;-64
2022/07/07 10:09:28;;;;;;;15.02;3.22;;;;;;;;;;4985150;28;20274;-64
2022/07/07 10:11:55;;;;;;;15.95;2.95;;;;;;;;;;4985698;28;20047;-64
2022/07/07 10:14:23;;;;;;;13.70;2.88;;;;;;;;;;4982991;28;20046;-63
2022/07/07 10:16:51;;;;;;;10.07;2.17;;;;;;;;;;4984487;28;20773;-63
2022/07/07 10:19:18;;;;;;;20.35;3.22;;;;;;;;;;4983512;28;20069;-64
2022/07/07 10:21:45;;;;;;;18.85;3.78;;;;;;;;;;4983885;28;20034;-64
2022/07/07 10:24:12;;;;;;;18.52;3.15;;;;;;;;;;4983901;28;20140;-63
2022/07/07 10:26:39;;;;;;;18.60;3.97;;;;;;;;;;4985884;28;20030;-63
2022/07/07 10:29:07;;;;;;;19.92;2.92;;;;;;;;;;4982974;28;20049;-64
2022/07/07 10:31:33;;;;;;;19.33;3.45;;;;;;;;;;4977314;28;20054;-64
2022/07/07 10:34:01;;;;;;;26.08;4.15;;;;;;;;;;4980847;28;20048;-63
2022/07/07 10:36:27;;;;;;;27.23;4.35;;;;;;;;;;4983671;28;20053;-64
2022/07/07 10:38:57;;;;;;;21.48;3.65;;;;;;;;;;4981781;28;20043;-64
2022/07/07 10:41:25;;;;;;;16.45;3.42;;;;;;;;;;4981387;28;20492;-64
2022/07/07 10:43:59;;;;;;;12.80;2.33;;;;;;;;;;4987260;28;20133;-64
2022/07/07 10:46:25;;;;;;;26.13;3.80;;;;;;;;;;4983460;28;20061;-64
2022/07/07 10:48:54;;;;;;;11.43;3.00;;;;;;;;;;4980432;28;21004;-64
2022/07/07 10:51:23;;;;;;;14.30;3.67;;;;;;;;;;4965894;28;20054;-64
2022/07/07 10:54:06;;;;;;;19.45;2.65;;;;;;;;;;4980852;28;20126;-63
2022/07/07 10:57:02;;;;;;;18.55;3.22;;;;;;;;;;4983408;28;20484;-63
2022/07/07 10:59:29;;;;;;;12.82;2.33;;;;;;;;;;4981705;28;20058;-63
2022/07/07 11:02:01;;;;;;;17.30;2.70;;;;;;;;;;4982755;28;20096;-64
2022/07/07 11:04:44;;;;;;;18.45;3.55;;;;;;;;;;4978405;28;20111;-64
2022/07/07 11:07:11;;;;;;;9.65;2.00;;;;;;;;;;4966801;28;20409;-64
2022/07/07 11:09:57;;;;;;;13.70;2.75;;;;;;;;;;4979456;28;20115;-63
2022/07/07 11:12:38;;;;;;;13.90;2.70;;;;;;;;;;4980811;28;20042;-63
2022/07/07 11:15:30;;;;;;;16.83;2.80;;;;;;;;;;4967010;28;20058;-64
2022/07/07 11:17:56;;;;;;;12.55;2.30;;;;;;;;;;4983288;28;20406;-64
2022/07/07 11:20:24;;;;;;;11.02;2.05;;;;;;;;;;4983848;28;20081;-64
2022/07/07 11:22:53;;;;;;;13.13;2.47;;;;;;;;;;4984223;28;20533;-64
2022/07/07 11:25:21;;;;;;;14.55;2.35;;;;;;;;;;4981898;28;20050;-63
2022/07/07 11:27:48;;;;;;;18.85;3.38;;;;;;;;;;4983732;28;20065;-63
2022/07/07 11:30:14;;;;;;;14.32;2.80;;;;;;;;;;4985175;28;20481;-63
2022/07/07 11:32:42;;;;;;;13.27;2.55;;;;;;;;;;4987079;28;20046;-63
2022/07/07 11:35:10;;;;;;;13.35;2.65;;;;;;;;;;4974501;28;20052;-63
2022/07/07 11:37:37;;;;;;;14.52;3.55;;;;;;;;;;4986172;28;20111;-64
2022/07/07 11:40:04;;;;;;;13.15;2.80;;;;;;;;;;4966867;28;20613;-64
2022/07/07 11:42:35;;;;;;;21.40;3.83;;;;;;;;;;4985865;28;20046;-63
2022/07/07 11:45:01;;;;;;;15.32;3.15;;;;;;;;;;4985172;28;20054;-64
2022/07/07 11:47:32;;;;;;;15.32;3.08;;;;;;;;;;4986722;28;20092;-64
2022/07/07 11:49:59;;;;;;;17.08;3.58;;;;;;;;;;4984957;28;20095;-63
2022/07/07 11:52:25;;;;;;;24.17;3.60;;;;;;;;;;4985207;28;20044;-63
2022/07/07 11:54:51;;;;;;;18.67;3.97;;;;;;;;;;4966492;28;20059;-64
2022/07/07 11:57:31;;;;;;;14.23;3.28;;;;;;;;;;4983475;28;20046;-64
2022/07/07 12:00:17;;;;;;;15.55;3.35;;;;;;;;;;4981791;28;20125;-63
2022/07/07 12:02:44;;;;;;;14.73;2.97;;;;;;;;;;4989582;28;20030;-64
2022/07/07 12:05:11;;;;;;;18.05;3.60;;;;;;;;;;4983018;28;20057;-64
2022/07/07 12:07:37;;;;;;;19.00;3.90;;;;;;;;;;4981760;28;20034;-63
2022/07/07 12:10:04;;;;;;;20.52;3.75;;;;;;;;;;4982354;28;20117;-64
2022/07/07 12:12:30;;;;;;;14.88;3.65;;;;;;;;;;4982237;28;20144;-63
2022/07/07 12:14:56;;;;;;;15.38;3.30;;;;;;;;;;4982322;28;20042;-64
2022/07/07 12:17:37;;;;;;;15.60;3.00;;;;;;;;;;4984812;28;20463;-63
2022/07/07 12:20:04;;;;;;;17.30;3.33;;;;;;;;;;4963092;28;20054;-64
2022/07/07 12:22:33;;;;;;;20.13;3.83;;;;;;;;;;4981916;28;20123;-63
2022/07/07 12:25:01;;;;;;;15.85;3.15;;;;;;;;;;4982819;28;20057;-64
2022/07/07 12:27:28;;;;;;;12.07;2.78;;;;;;;;;;4964440;28;20057;-63
2022/07/07 12:30:01;;;;;;;9.18;2.88;;;;;;;;;;4981685;28;20061;-64
2022/07/07 12:32:27;;;;;;;12.23;2.55;;;;;;;;;;4981982;28;20066;-63
2022/07/07 12:34:53;;;;;;;11.25;2.72;;;;;;;;;;4981282;28;20104;-64
2022/07/07 12:37:19;;;;;;;15.95;2.72;;;;;;;;;;4981789;28;20622;-63
2022/07/07 12:39:50;;;;;;;17.67;2.85;;;;;;;;;;4982722;28;20070;-64
2022/07/07 12:42:25;;;;;;;15.18;3.10;;;;;;;;;;4980949;28;20129;-64
2022/07/07 12:44:51;;;;;;;13.25;2.85;;;;;;;;;;4978262;28;20145;-63
2022/07/07 12:47:18;;;;;;;14.45;2.80;;;;;;;;;;4978897;28;20042;-64
2022/07/07 12:49:55;;;;;;;16.67;2.92;;;;;;;;;;4978548;28;20035;-63
2022/07/07 12:52:22;;;;;;;13.00;2.30;;;;;;;;;;4976209;28;20069;-63
2022/07/07 12:54:48;;;;;;;9.65;2.28;;;;;;;;;;4958835;28;20050;-63
2022/07/07 12:57:15;;;;;;;13.68;2.47;;;;;;;;;;4976272;28;20038;-63
2022/07/07 12:59:44;;;;;;;13.52;2.25;;;;;;;;;;4978093;28;20543;-63
2022/07/07 13:02:11;;;;;;;14.85;2.45;;;;;;;;;;4961554;28;20133;-64
2022/07/07 13:04:38;;;;;;;10.45;1.90;;;;;;;;;;4979782;28;20099;-63
2022/07/07 13:07:04;;;;;;;18.40;2.42;;;;;;;;;;4981594;28;20039;-63
2022/07/07 13:09:31;;;;;;;7.38;1.90;;;;;;;;;;4982059;28;20058;-63
2022/07/07 13:11:57;;;;;;;11.07;2.05;;;;;;;;;;4981968;28;20084;-64
2022/07/07 13:14:23;;;;;;;14.57;2.28;;;;;;;;;;4979662;28;20216;-63
2022/07/07 13:16:49;;;;;;;11.57;2.58;;;;;;;;;;4981397;28;20046;-64
2022/07/07 13:19:16;;;;;;;12.75;1.70;;;;;;;;;;4963649;28;20062;-64
2022/07/07 13:21:42;;;;;;;8.75;1.90;;;;;;;;;;4981165;28;20104;-64
2022/07/07 13:24:09;;;;;;;8.25;2.15;;;;;;;;;;4980446;28;20111;-64
2022/07/07 13:26:35;;;;;;;12.88;2.47;;;;;;;;;;4963675;28;20103;-64
2022/07/07 13:29:01;;;;;;;8.93;1.88;;;;;;;;;;4981308;28;20038;-63
2022/07/07 13:31:28;;;;;;;7.13;1.67;;;;;;;;;;4979960;28;20043;-64
2022/07/07 13:33:54;;;;;;;9.90;1.73;;;;;;;;;;4981438;28;20038;-64
2022/07/07 13:36:20;;;;;;;13.23;2.00;;;;;;;;;;4981202;28;20051;-63
2022/07/07 13:38:47;;;;;;;10.70;1.77;;;;;;;;;;4980794;28;20193;-64
2022/07/07 13:41:15;;;;;;;10.52;1.70;;;;;;;;;;4982238;28;20098;-64
2022/07/07 13:43:41;;;;;;;10.55;2.00;;;;;;;;;;4981839;28;20058;-64
2022/07/07 13:46:08;;;;;;;10.63;2.42;;;;;;;;;;4962977;28;20099;-64
2022/07/07 13:48:34;;;;;;;9.65;2.03;;;;;;;;;;4980692;28;20555;-64
2022/07/07 13:51:00;;;;;;;11.93;2.45;;;;;;;;;;4980031;28;20053;-64
2022/07/07 13:53:27;;;;;;;15.85;3.15;;;;;;;;;;4963497;28;20070;-63
2022/07/07 13:55:53;;;;;;;10.15;1.90;;;;;;;;;;4982137;28;20042;-64
2022/07/07 13:58:19;;;;;;;10.02;2.63;;;;;;;;;;4979963;28;21333;-64
2022/07/07 14:00:46;;;;;;;12.02;1.95;;;;;;;;;;4981396;28;20370;-64
2022/07/07 14:03:12;;;;;;;18.40;3.00;;;;;;;;;;4980242;28;20068;-64
2022/07/07 14:05:38;;;;;;;14.43;2.88;;;;;;;;;;4981363;28;20099;-63
2022/07/07 14:08:04;;;;;;;15.88;3.17;;;;;;;;;;4979920;28;20500;-63
2022/07/07 14:10:30;;;;;;;14.35;2.50;;;;;;;;;;4981897;28;20042;-64
2022/07/07 14:12:56;;;;;;;14.57;2.90;;;;;;;;;;4980699;28;20046;-64
2022/07/07 14:15:23;;;;;;;14.55;2.33;;;;;;;;;;4981748;28;20038;-64
2022/07/07 14:17:49;;;;;;;12.77;2.88;;;;;;;;;;4984429;28;20483;-63
2022/07/07 14:20:15;;;;;;;11.30;2.38;;;;;;;;;;4985637;28;20504;-64
2022/07/07 14:22:42;;;;;;;12.00;2.13;;;;;;;;;;4985035;28;20045;-62
2022/07/07 14:25:08;;;;;;;11.20;2.80;;;;;;;;;;4984514;28;20095;-64
2022/07/07 14:27:34;;;;;;;19.90;3.05;;;;;;;;;;4980683;28;20137;-63
2022/07/07 14:30:03;;;;;;;8.30;1.67;;;;;;;;;;4981318;28;20133;-63
2022/07/07 14:32:29;;;;;;;13.30;2.13;;;;;;;;;;4982318;28;20051;-64
2022/07/07 14:34:56;;;;;;;16.88;2.42;;;;;;;;;;4981274;28;20100;-63
2022/07/07 14:37:23;;;;;;;8.88;2.00;;;;;;;;;;4980813;28;20149;-63